Paradise, CA

2:05 PM PST on December 08, 2016 (GMT -0800)
Valley View and Reeds Court, P-Town | | Change Station

Elev 1647 ft 39.76 °N, 121.64 °W | Updated 25 seconds ago

Rain
Rain
45.0 °F
Feels Like 45 °F
N
0.0
Wind Variable Wind from East

Today
High -- | Low -- °F
--% Chance of Precip.
Yesterday
High -- | Low -- °F
Precip. -- in
Pressure 30.17 in
Visibility 1.0 miles
Clouds Overcast 400 ft
Windchill 45 °F
Dew Point 43 °F
Humidity 93%
Rainfall 0.00 in
Snow Depth Not available.
7:15 AM 4:41 PM
Waxing Gibbous, 67% visible
METAR KCIC 082158Z VRB05KT 1SM BR OVC004 05/05 A3017
Pressure 30.17 in
Visibility 1.0 miles
Clouds Overcast 400 ft
Windchill 45 °F
Dew Point 43 °F
Humidity 93%
Rainfall 0.00 in
Snow Depth Not available.
7:15 AM 4:41 PM
Waxing Gibbous, 67% visible
METAR KCIC 082158Z VRB05KT 1SM BR OVC004 05/05 A3017

10-Day Weather Forecast

Almanac

Astronomy

Dec. 08, 2016 Rise Set
Actual Time
Civil Twilight
Nautical Twilight
Astronomical Twilight
Moon
Length of Visible Light
Length of Day
Tomorrow will be .
, % of the Moon is Illuminated

Today's Extremes

State Highs State Lows

Community

WunderPhotos

Upload Photos

1,956,277 photos uploaded!

WunderBlog® & News

Nearby

Air Quality

  Air Quality AQ Index Pollutant
Not available.

Snow Depth

Station Depth Elevation

Earthquake Activity

City Distance Mag. Time & Date
Minimum magnitude displayed is 2.5.

Coastal Water Temperatures

Place Temperature

Stations

Nearby Weather Stations

Station Location Temp. Windchill Dew Point Humidity Wind Precip. Elev Updated Type
                   

Watches & Warnings

There are currently no watches in effect.